Rancho Haven, Nevada
Current Conditions -  °F | °C
As of 11:15 AM on Thursday 27 Nov 2014 (Local Time) from KRTS Reporting Station
Clear Clear  
Wind Chill: 66°   Ceiling: Unl
Heat Index: 66°   Visibility: 10mi
Dew Point:   Wind: 21mph
Humidity: 9%   Direction: 240°WSW
Pressure: 30.22"   Gusts: 29mph
Location:  39.7378°N, 119.889°W
Report Text: KRTS 271915Z AUTO 24018G25KT 10SM CLR 19/M15 A3022 RMK AO2
Loading
Personal Weather Stations






























Interactive Weather Map New forecast layout! Learn more

10-Day Weather Forecast

Advertisements
Track Severe Weather on mobile